Time,TemperatureF,DewpointF,PressureIn,WindDirection,WindDirectionDegrees,WindSpeedMPH,WindSpeedGustMPH,Humidity,HourlyPrecipIn,Conditions,Clouds,dailyrainin,SoftwareType,DateUTC
2013-11-10 00:13:00,40.0,36.0,29.75,NW,325,14.0,23.0,85,-99.99,,,-99.99,,2013-11-10 05:13:00,
2013-11-10 00:50:00,40.0,36.0,29.82,NW,325,22.0,28.0,85,-99.99,,,-99.99,,2013-11-10 05:50:00,
2013-11-10 01:22:00,40.0,36.0,29.75,NNW,330,19.0,32.0,86,-99.99,,,-99.99,,2013-11-10 06:22:00,
2013-11-10 01:42:00,40.0,36.0,29.82,NW,325,22.0,28.0,85,-99.99,,,-99.99,,2013-11-10 06:42:00,
2013-11-10 02:52:00,39.0,36.0,29.82,NNW,335,25.0,29.0,91,-99.99,,,-99.99,,2013-11-10 07:52:00,
2013-11-10 03:21:00,40.0,37.0,29.82,NNW,340,33.0,47.0,90,-99.99,,,-99.99,,2013-11-10 08:21:00,
2013-11-10 03:42:00,39.0,37.0,29.82,NNW,340,40.0,48.0,91,-99.99,,,-99.99,,2013-11-10 08:42:00,
2013-11-10 03:52:00,39.0,37.0,29.82,North,0,34.0,44.0,91,-99.99,,,-99.99,,2013-11-10 08:52:00,
2013-11-10 04:21:00,38.0,36.0,29.91,NNW,340,34.0,49.0,92,-99.99,,,-99.99,,2013-11-10 09:21:00,
2013-11-10 05:13:00,40.0,35.0,29.91,North,350,38.0,46.0,82,-99.99,,,-99.99,,2013-11-10 10:13:00,
2013-11-10 06:12:00,39.0,36.0,-100.00,North,0,33.0,51.0,89,-99.99,,,-99.99,,2013-11-10 11:12:00,
2013-11-10 06:43:00,39.0,35.0,-100.00,North,355,38.0,49.0,88,-99.99,,,-99.99,,2013-11-10 11:43:00,
2013-11-10 07:42:00,39.0,36.0,30.04,NNW,340,33.0,46.0,88,-99.99,,,-99.99,,2013-11-10 12:42:00,
2013-11-10 08:11:00,40.0,32.0,30.04,NNW,345,40.0,48.0,75,-99.99,,,-99.99,,2013-11-10 13:11:00,
2013-11-10 08:21:00,40.0,31.0,30.04,NNW,345,41.0,47.0,70,-99.99,,,-99.99,,2013-11-10 13:21:00,
2013-11-10 08:41:00,40.0,32.0,30.04,NNW,345,38.0,47.0,72,-99.99,,,-99.99,,2013-11-10 13:41:00,
2013-11-10 09:21:00,40.0,32.0,30.04,NNW,345,35.0,41.0,72,-99.99,,,-99.99,,2013-11-10 14:21:00,
2013-11-10 09:42:00,39.0,33.0,30.04,NNW,335,28.0,41.0,79,-99.99,,,-99.99,,2013-11-10 14:42:00,
2013-11-10 10:22:00,39.0,31.0,30.13,NNW,330,27.0,34.0,74,-99.99,,,-99.99,,2013-11-10 15:22:00,
2013-11-10 10:43:00,38.0,31.0,30.13,NNW,330,15.0,31.0,76,-99.99,,,-99.99,,2013-11-10 15:43:00,
2013-11-10 11:42:00,39.0,31.0,30.13,NW,325,11.0,27.0,74,-99.99,,,-99.99,,2013-11-10 16:42:00,
2013-11-10 11:53:00,39.0,32.0,30.13,NNW,330,17.0,24.0,75,-99.99,,,-99.99,,2013-11-10 16:53:00,
2013-11-10 12:02:00,39.0,32.0,30.13,NNW,330,17.0,24.0,75,-99.99,,,-99.99,,2013-11-10 17:02:00,
2013-11-10 12:23:00,39.0,32.0,30.13,NNW,330,10.0,21.0,77,-99.99,,,-99.99,,2013-11-10 17:23:00,
2013-11-10 12:43:00,39.0,32.0,30.13,West,275,8.0,18.0,77,-99.99,,,-99.99,,2013-11-10 17:43:00,
2013-11-10 13:13:00,39.0,32.0,30.13,West,280,9.0,18.0,75,-99.99,,,-99.99,,2013-11-10 18:13:00,
2013-11-10 13:24:00,40.0,32.0,30.18,NW,320,8.0,18.0,73,-99.99,,,-99.99,,2013-11-10 18:24:00,
2013-11-10 13:42:00,40.0,32.0,30.18,NW,325,12.0,22.0,72,-99.99,,,-99.99,,2013-11-10 18:42:00,
2013-11-10 14:11:00,40.0,31.0,30.18,West,275,8.0,20.0,71,-99.99,,,-99.99,,2013-11-10 19:11:00,
2013-11-10 14:22:00,40.0,31.0,30.18,West,275,8.0,20.0,71,-99.99,,,-99.99,,2013-11-10 19:22:00,
2013-11-10 15:11:00,39.0,29.0,30.18,WNW,295,10.0,17.0,66,-99.99,,,-99.99,,2013-11-10 20:11:00,
2013-11-10 15:22:00,39.0,29.0,30.18,WNW,295,10.0,17.0,66,-99.99,,,-99.99,,2013-11-10 20:22:00,
2013-11-10 16:22:00,39.0,26.0,30.13,West,280,12.0,21.0,61,-99.99,,,-99.99,,2013-11-10 21:22:00,
2013-11-10 17:23:00,38.0,27.0,30.13,West,280,10.0,13.0,64,-99.99,,,-99.99,,2013-11-10 22:23:00,
2013-11-10 17:43:00,38.0,27.0,30.13,WSW,255,9.0,14.0,65,-99.99,,,-99.99,,2013-11-10 22:43:00,
2013-11-10 18:22:00,37.0,27.0,30.13,SW,235,7.0,13.0,68,-99.99,,,-99.99,,2013-11-10 23:22:00,